sensor_id;sensor_type;location;lat;lon;timestamp;pressure;altitude;pressure_sealevel;temperature;humidity
6216;BME280;3141;49.234;9.326;2024-01-25T00:00:32;100818.59;;;12.92;67.21
6216;BME280;3141;49.234;9.326;2024-01-25T00:01:15;100819.28;;;12.94;67.29
6216;BME280;3141;49.234;9.326;2024-01-25T00:01:57;100819.53;;;12.91;67.31
6216;BME280;3141;49.234;9.326;2024-01-25T00:02:39;100822.09;;;12.83;67.52
6216;BME280;3141;49.234;9.326;2024-01-25T00:03:22;100821.50;;;12.89;67.36
6216;BME280;3141;49.234;9.326;2024-01-25T00:04:04;100818.44;;;12.94;67.16
6216;BME280;3141;49.234;9.326;2024-01-25T00:04:47;100818.19;;;12.87;67.46
6216;BME280;3141;49.234;9.326;2024-01-25T00:05:29;100822.19;;;12.91;67.33
6216;BME280;3141;49.234;9.326;2024-01-25T00:06:11;100825.44;;;12.85;67.37
6216;BME280;3141;49.234;9.326;2024-01-25T00:06:54;100831.31;;;12.79;67.48
6216;BME280;3141;49.234;9.326;2024-01-25T00:07:47;100824.28;;;12.97;67.17
6216;BME280;3141;49.234;9.326;2024-01-25T00:08:30;100818.44;;;12.94;67.16
6216;BME280;3141;49.234;9.326;2024-01-25T00:09:12;100825.44;;;12.85;67.41
6216;BME280;3141;49.234;9.326;2024-01-25T00:09:55;100825.00;;;12.90;67.34
6216;BME280;3141;49.234;9.326;2024-01-25T00:10:37;100819.00;;;12.88;67.39
6216;BME280;3141;49.234;9.326;2024-01-25T00:11:19;100824.28;;;12.97;67.10
6216;BME280;3141;49.234;9.326;2024-01-25T00:12:02;100826.81;;;12.89;67.18
6216;BME280;3141;49.234;9.326;2024-01-25T00:12:44;100827.66;;;12.99;66.92
6216;BME280;3141;49.234;9.326;2024-01-25T00:13:26;100824.00;;;13.00;67.12
6216;BME280;3141;49.234;9.326;2024-01-25T00:14:09;100821.25;;;12.82;67.34
6216;BME280;3141;49.234;9.326;2024-01-25T00:14:52;100815.97;;;12.73;67.72
6216;BME280;3141;49.234;9.326;2024-01-25T00:15:34;100820.28;;;12.74;67.88
6216;BME280;3141;49.234;9.326;2024-01-25T00:16:17;100805.75;;;12.78;67.86
6216;BME280;3141;49.234;9.326;2024-01-25T00:16:59;100819.00;;;12.88;67.55
6216;BME280;3141;49.234;9.326;2024-01-25T00:17:41;100818.75;;;12.71;68.00
6216;BME280;3141;49.234;9.326;2024-01-25T00:18:24;100815.94;;;12.82;68.08
6216;BME280;3141;49.234;9.326;2024-01-25T00:19:06;100812.44;;;12.92;67.40
6216;BME280;3141;49.234;9.326;2024-01-25T00:19:48;100810.41;;;12.66;68.10
6216;BME280;3141;49.234;9.326;2024-01-25T00:20:31;100805.31;;;12.82;68.12
6216;BME280;3141;49.234;9.326;2024-01-25T00:21:14;100805.75;;;12.78;68.09
6216;BME280;3141;49.234;9.326;2024-01-25T00:21:56;100805.19;;;12.74;67.79
6216;BME280;3141;49.234;9.326;2024-01-25T00:22:38;100810.06;;;12.89;67.58
6216;BME280;3141;49.234;9.326;2024-01-25T00:23:21;100809.22;;;12.88;67.67
6216;BME280;3141;49.234;9.326;2024-01-25T00:24:03;100804.72;;;12.98;67.46
6216;BME280;3141;49.234;9.326;2024-01-25T00:24:45;100805.56;;;12.99;67.30
6216;BME280;3141;49.234;9.326;2024-01-25T00:25:28;100807.41;;;12.89;67.47
6216;BME280;3141;49.234;9.326;2024-01-25T00:26:10;100808.66;;;12.85;67.96
6216;BME280;3141;49.234;9.326;2024-01-25T00:26:52;100801.91;;;13.00;67.48
6216;BME280;3141;49.234;9.326;2024-01-25T00:27:35;100812.03;;;12.87;67.62
6216;BME280;3141;49.234;9.326;2024-01-25T00:28:17;100796.94;;;12.77;68.30
6216;BME280;3141;49.234;9.326;2024-01-25T00:28:59;100798.34;;;12.82;68.05
6216;BME280;3141;49.234;9.326;2024-01-25T00:29:42;100796.41;;;12.74;68.41
6216;BME280;3141;49.234;9.326;2024-01-25T00:30:24;100789.97;;;12.76;68.31
6216;BME280;3141;49.234;9.326;2024-01-25T00:31:07;100790.78;;;12.77;68.14
6216;BME280;3141;49.234;9.326;2024-01-25T00:31:49;100793.03;;;12.72;68.54
6216;BME280;3141;49.234;9.326;2024-01-25T00:32:32;100794.72;;;12.73;68.21
6216;BME280;3141;49.234;9.326;2024-01-25T00:33:14;100794.72;;;12.73;68.81
6216;BME280;3141;49.234;9.326;2024-01-25T00:33:57;100792.63;;;12.76;68.72
6216;BME280;3141;49.234;9.326;2024-01-25T00:34:40;100788.84;;;12.79;68.12
6216;BME280;3141;49.234;9.326;2024-01-25T00:35:26;100791.53;;;12.69;68.54
6216;BME280;3141;49.234;9.326;2024-01-25T00:36:09;100789.97;;;12.67;68.96
6216;BME280;3141;49.234;9.326;2024-01-25T00:36:51;100788.06;;;12.59;69.23
6216;BME280;3141;49.234;9.326;2024-01-25T00:37:34;100782.44;;;12.72;68.88
6216;BME280;3141;49.234;9.326;2024-01-25T00:38:17;100787.31;;;12.67;68.90
6216;BME280;3141;49.234;9.326;2024-01-25T00:38:59;100787.75;;;12.72;68.99
6216;BME280;3141;49.234;9.326;2024-01-25T00:39:42;100782.97;;;12.75;68.68
6216;BME280;3141;49.234;9.326;2024-01-25T00:40:25;100786.19;;;12.79;68.46
6216;BME280;3141;49.234;9.326;2024-01-25T00:41:09;100784.69;;;12.76;68.58
6216;BME280;3141;49.234;9.326;2024-01-25T00:41:52;100788.16;;;12.77;68.50
6216;BME280;3141;49.234;9.326;2024-01-25T00:42:41;100792.94;;;12.64;69.13
6216;BME280;3141;49.234;9.326;2024-01-25T00:43:24;100792.38;;;12.70;68.98
6216;BME280;3141;49.234;9.326;2024-01-25T00:44:07;100788.28;;;12.75;68.85
6216;BME280;3141;49.234;9.326;2024-01-25T00:44:49;100796.25;;;12.75;68.79
6216;BME280;3141;49.234;9.326;2024-01-25T00:45:32;100797.53;;;12.62;69.33
6216;BME280;3141;49.234;9.326;2024-01-25T00:46:15;100795.03;;;12.70;68.83
6216;BME280;3141;49.234;9.326;2024-01-25T00:46:57;100791.13;;;12.64;69.14
6216;BME280;3141;49.234;9.326;2024-01-25T00:47:40;100795.84;;;12.70;69.14
6216;BME280;3141;49.234;9.326;2024-01-25T00:48:23;100793.03;;;12.72;68.84
6216;BME280;3141;49.234;9.326;2024-01-25T00:49:05;100788.59;;;12.72;68.96
6216;BME280;3141;49.234;9.326;2024-01-25T00:49:48;100792.38;;;12.70;69.04
6216;BME280;3141;49.234;9.326;2024-01-25T00:50:30;100788.69;;;12.80;68.70
6216;BME280;3141;49.234;9.326;2024-01-25T00:51:15;100792.31;;;12.89;68.25
6216;BME280;3141;49.234;9.326;2024-01-25T00:52:03;100798.31;;;12.91;68.04
6216;BME280;3141;49.234;9.326;2024-01-25T00:52:46;100794.44;;;12.76;68.48
6216;BME280;3141;49.234;9.326;2024-01-25T00:53:28;100796.53;;;12.82;68.52
6216;BME280;3141;49.234;9.326;2024-01-25T00:54:11;100799.00;;;12.93;68.09
6216;BME280;3141;49.234;9.326;2024-01-25T00:54:53;100788.03;;;12.78;68.66
6216;BME280;3141;49.234;9.326;2024-01-25T00:55:36;100796.94;;;12.87;68.33
6216;BME280;3141;49.234;9.326;2024-01-25T00:56:19;100791.34;;;12.90;68.25
6216;BME280;3141;49.234;9.326;2024-01-25T00:57:01;100796.94;;;12.87;68.30
6216;BME280;3141;49.234;9.326;2024-01-25T00:57:44;100800.56;;;12.86;68.24
6216;BME280;3141;49.234;9.326;2024-01-25T00:58:27;100802.00;;;12.71;68.67
6216;BME280;3141;49.234;9.326;2024-01-25T00:59:09;100804.50;;;12.82;68.82
6216;BME280;3141;49.234;9.326;2024-01-25T00:59:53;100800.16;;;12.81;68.74
6216;BME280;3141;49.234;9.326;2024-01-25T01:00:36;100798.59;;;12.88;68.45
6216;BME280;3141;49.234;9.326;2024-01-25T01:01:20;100800.25;;;12.89;68.35
6216;BME280;3141;49.234;9.326;2024-01-25T01:02:04;100796.41;;;12.74;69.07
6216;BME280;3141;49.234;9.326;2024-01-25T01:02:48;100798.34;;;12.82;68.59
6216;BME280;3141;49.234;9.326;2024-01-25T01:03:31;100793.31;;;12.88;68.29
6216;BME280;3141;49.234;9.326;2024-01-25T01:04:14;100792.19;;;12.81;68.62
6216;BME280;3141;49.234;9.326;2024-01-25T01:04:57;100784.69;;;12.76;68.88
6216;BME280;3141;49.234;9.326;2024-01-25T01:05:40;100788.03;;;12.69;69.02
6216;BME280;3141;49.234;9.326;2024-01-25T01:06:23;100786.91;;;12.71;69.21
6216;BME280;3141;49.234;9.326;2024-01-25T01:07:05;100789.03;;;12.68;69.40
6216;BME280;3141;49.234;9.326;2024-01-25T01:07:48;100788.19;;;12.58;69.52
6216;BME280;3141;49.234;9.326;2024-01-25T01:08:31;100781.09;;;12.49;70.15
6216;BME280;3141;49.234;9.326;2024-01-25T01:09:13;100785.84;;;12.45;70.09
6216;BME280;3141;49.234;9.326;2024-01-25T01:09:56;100792.09;;;12.54;70.08
6216;BME280;3141;49.234;9.326;2024-01-25T01:10:38;100783.97;;;12.65;69.45
6216;BME280;3141;49.234;9.326;2024-01-25T01:11:20;100776.88;;;12.56;69.94
6216;BME280;3141;49.234;9.326;2024-01-25T01:12:03;100786.38;;;12.58;70.13
6216;BME280;3141;49.234;9.326;2024-01-25T01:12:45;100786.91;;;12.62;69.61
6216;BME280;3141;49.234;9.326;2024-01-25T01:13:28;100790.56;;;12.61;69.54
6216;BME280;3141;49.234;9.326;2024-01-25T01:14:10;100790.28;;;12.64;69.64
6216;BME280;3141;49.234;9.326;2024-01-25T01:14:52;100801.59;;;12.66;69.45
6216;BME280;3141;49.234;9.326;2024-01-25T01:15:35;100796.13;;;12.67;69.62
6216;BME280;3141;49.234;9.326;2024-01-25T01:16:17;100797.69;;;12.70;69.50
6216;BME280;3141;49.234;9.326;2024-01-25T01:17:02;100801.00;;;12.72;69.22
6216;BME280;3141;49.234;9.326;2024-01-25T01:17:44;100799.78;;;12.57;69.81
6216;BME280;3141;49.234;9.326;2024-01-25T01:18:26;100800.06;;;12.54;70.00
6216;BME280;3141;49.234;9.326;2024-01-25T01:19:08;100804.94;;;12.58;69.64
6216;BME280;3141;49.234;9.326;2024-01-25T01:19:51;100802.53;;;12.65;69.77
6216;BME280;3141;49.234;9.326;2024-01-25T01:20:33;100797.53;;;12.71;69.72
6216;BME280;3141;49.234;9.326;2024-01-25T01:21:16;100794.88;;;12.71;69.24
6216;BME280;3141;49.234;9.326;2024-01-25T01:21:58;100798.94;;;12.66;69.31
6216;BME280;3141;49.234;9.326;2024-01-25T01:22:40;100796.97;;;12.58;69.76
6216;BME280;3141;49.234;9.326;2024-01-25T01:23:23;100800.59;;;12.48;69.79
6216;BME280;3141;49.234;9.326;2024-01-25T01:24:05;100802.13;;;12.60;69.68
6216;BME280;3141;49.234;9.326;2024-01-25T01:24:47;100801.03;;;12.53;69.89
6216;BME280;3141;49.234;9.326;2024-01-25T01:25:30;100800.06;;;12.54;69.88
6216;BME280;3141;49.234;9.326;2024-01-25T01:26:12;100801.88;;;12.63;69.69
6216;BME280;3141;49.234;9.326;2024-01-25T01:26:54;100804.94;;;12.58;69.88
6216;BME280;3141;49.234;9.326;2024-01-25T01:27:37;100793.75;;;12.55;70.06
6216;BME280;3141;49.234;9.326;2024-01-25T01:28:19;100809.00;;;12.62;69.51
6216;BME280;3141;49.234;9.326;2024-01-25T01:29:01;100805.06;;;12.57;69.97
6216;BME280;3141;49.234;9.326;2024-01-25T01:29:44;100801.59;;;12.47;69.75
6216;BME280;3141;49.234;9.326;2024-01-25T01:30:26;100794.75;;;12.54;69.70
6216;BME280;3141;49.234;9.326;2024-01-25T01:31:08;100802.00;;;12.52;69.94
6216;BME280;3141;49.234;9.326;2024-01-25T01:31:51;100800.91;;;12.54;69.88
6216;BME280;3141;49.234;9.326;2024-01-25T01:32:33;100791.69;;;12.49;70.23
6216;BME280;3141;49.234;9.326;2024-01-25T01:33:15;100788.34;;;12.47;70.29
6216;BME280;3141;49.234;9.326;2024-01-25T01:33:58;100795.44;;;12.46;70.02
6216;BME280;3141;49.234;9.326;2024-01-25T01:34:40;100790.84;;;12.48;70.06
6216;BME280;3141;49.234;9.326;2024-01-25T01:35:22;100805.38;;;12.54;69.90
6216;BME280;3141;49.234;9.326;2024-01-25T01:36:05;100799.06;;;12.55;69.35
6216;BME280;3141;49.234;9.326;2024-01-25T01:36:47;100799.66;;;12.49;70.03
6216;BME280;3141;49.234;9.326;2024-01-25T01:37:29;100798.38;;;12.53;69.82
6216;BME280;3141;49.234;9.326;2024-01-25T01:38:12;100807.59;;;12.58;69.33
6216;BME280;3141;49.234;9.326;2024-01-25T01:38:54;100801.19;;;12.61;69.23
6216;BME280;3141;49.234;9.326;2024-01-25T01:39:36;100799.38;;;12.52;69.40
6216;BME280;3141;49.234;9.326;2024-01-25T01:40:19;100798.25;;;12.45;69.64
6216;BME280;3141;49.234;9.326;2024-01-25T01:41:01;100796.03;;;12.40;70.12
6216;BME280;3141;49.234;9.326;2024-01-25T01:41:53;100794.75;;;12.44;69.78
6216;BME280;3141;49.234;9.326;2024-01-25T01:42:35;100797.81;;;12.49;69.69
6216;BME280;3141;49.234;9.326;2024-01-25T01:43:19;100799.09;;;12.36;69.86
6216;BME280;3141;49.234;9.326;2024-01-25T01:44:02;100792.25;;;12.43;69.63
6216;BME280;3141;49.234;9.326;2024-01-25T01:44:44;100795.72;;;12.53;69.44
6216;BME280;3141;49.234;9.326;2024-01-25T01:45:27;100797.81;;;12.59;69.36
6216;BME280;3141;49.234;9.326;2024-01-25T01:46:11;100796.56;;;12.53;69.66
6216;BME280;3141;49.234;9.326;2024-01-25T01:46:54;100797.81;;;12.49;69.27
6216;BME280;3141;49.234;9.326;2024-01-25T01:47:37;100794.47;;;12.57;69.37
6216;BME280;3141;49.234;9.326;2024-01-25T01:48:19;100795.06;;;12.51;69.33
6216;BME280;3141;49.234;9.326;2024-01-25T01:49:03;100798.13;;;12.56;69.39
6216;BME280;3141;49.234;9.326;2024-01-25T01:49:46;100794.19;;;12.60;69.04
6216;BME280;3141;49.234;9.326;2024-01-25T01:50:29;100797.94;;;12.67;68.57
6216;BME280;3141;49.234;9.326;2024-01-25T01:51:11;100800.34;;;12.60;68.70
6216;BME280;3141;49.234;9.326;2024-01-25T01:51:55;100788.34;;;12.47;69.61
6216;BME280;3141;49.234;9.326;2024-01-25T01:52:37;100802.28;;;12.58;69.18
6216;BME280;3141;49.234;9.326;2024-01-25T01:53:19;100802.88;;;12.52;69.12
6216;BME280;3141;49.234;9.326;2024-01-25T01:54:02;100800.47;;;12.59;68.97
6216;BME280;3141;49.234;9.326;2024-01-25T01:54:45;100797.97;;;12.57;68.90
6216;BME280;3141;49.234;9.326;2024-01-25T01:55:28;100800.06;;;12.44;68.90
6216;BME280;3141;49.234;9.326;2024-01-25T01:56:12;100795.47;;;12.56;68.53
6216;BME280;3141;49.234;9.326;2024-01-25T01:56:55;100794.59;;;12.46;68.87
6216;BME280;3141;49.234;9.326;2024-01-25T01:57:38;100794.19;;;12.50;68.92
6216;BME280;3141;49.234;9.326;2024-01-25T01:58:22;100800.06;;;12.54;69.07
6216;BME280;3141;49.234;9.326;2024-01-25T01:59:08;100801.16;;;12.51;68.85
6216;BME280;3141;49.234;9.326;2024-01-25T01:59:51;100801.03;;;12.53;68.82
6216;BME280;3141;49.234;9.326;2024-01-25T02:00:33;100803.69;;;12.62;68.80
6216;BME280;3141;49.234;9.326;2024-01-25T02:01:16;100800.47;;;12.59;68.44
6216;BME280;3141;49.234;9.326;2024-01-25T02:01:58;100797.00;;;12.39;69.07
6216;BME280;3141;49.234;9.326;2024-01-25T02:02:41;100804.38;;;12.55;68.73
6216;BME280;3141;49.234;9.326;2024-01-25T02:03:24;100799.78;;;12.57;68.89
6216;BME280;3141;49.234;9.326;2024-01-25T02:04:06;100797.25;;;12.65;68.47
6216;BME280;3141;49.234;9.326;2024-01-25T02:04:48;100790.56;;;12.51;68.96
6216;BME280;3141;49.234;9.326;2024-01-25T02:05:31;100793.50;;;12.48;68.89
6216;BME280;3141;49.234;9.326;2024-01-25T02:06:13;100796.84;;;12.41;69.14
6216;BME280;3141;49.234;9.326;2024-01-25T02:06:55;100791.44;;;12.42;68.86
6216;BME280;3141;49.234;9.326;2024-01-25T02:07:38;100791.97;;;12.36;69.35
6216;BME280;3141;49.234;9.326;2024-01-25T02:08:22;100797.00;;;12.49;68.92
6216;BME280;3141;49.234;9.326;2024-01-25T02:09:04;100798.38;;;12.53;68.94
6216;BME280;3141;49.234;9.326;2024-01-25T02:09:47;100796.00;;;12.50;69.17
6216;BME280;3141;49.234;9.326;2024-01-25T02:10:29;100792.09;;;12.44;69.13
6216;BME280;3141;49.234;9.326;2024-01-25T02:11:12;100787.50;;;12.37;69.77
6216;BME280;3141;49.234;9.326;2024-01-25T02:12:01;100792.25;;;12.33;69.87
6216;BME280;3141;49.234;9.326;2024-01-25T02:12:44;100786.94;;;12.24;70.11
6216;BME280;3141;49.234;9.326;2024-01-25T02:13:26;100793.09;;;12.24;70.01
6216;BME280;3141;49.234;9.326;2024-01-25T02:14:09;100800.63;;;12.38;69.71
6216;BME280;3141;49.234;9.326;2024-01-25T02:14:53;100795.03;;;12.41;69.23
6216;BME280;3141;49.234;9.326;2024-01-25T02:15:36;100800.47;;;12.49;69.12
6216;BME280;3141;49.234;9.326;2024-01-25T02:16:18;100795.31;;;12.48;68.90
6216;BME280;3141;49.234;9.326;2024-01-25T02:17:02;100796.72;;;12.52;68.97
6216;BME280;3141;49.234;9.326;2024-01-25T02:17:44;100792.94;;;12.54;68.77
6216;BME280;3141;49.234;9.326;2024-01-25T02:18:27;100801.19;;;12.61;68.59
6216;BME280;3141;49.234;9.326;2024-01-25T02:19:10;100798.94;;;12.56;68.50
6216;BME280;3141;49.234;9.326;2024-01-25T02:19:52;100793.06;;;12.34;69.24
6216;BME280;3141;49.234;9.326;2024-01-25T02:20:34;100788.34;;;12.47;68.97
6216;BME280;3141;49.234;9.326;2024-01-25T02:21:16;100792.53;;;12.59;68.40
6216;BME280;3141;49.234;9.326;2024-01-25T02:21:59;100789.16;;;12.57;68.35
6216;BME280;3141;49.234;9.326;2024-01-25T02:22:41;100790.72;;;12.40;68.88
6216;BME280;3141;49.234;9.326;2024-01-25T02:23:24;100792.38;;;12.41;68.94
6216;BME280;3141;49.234;9.326;2024-01-25T02:24:06;100783.47;;;12.33;68.83
6216;BME280;3141;49.234;9.326;2024-01-25T02:24:49;100788.75;;;12.33;69.11
6216;BME280;3141;49.234;9.326;2024-01-25T02:25:31;100789.19;;;12.38;68.69
6216;BME280;3141;49.234;9.326;2024-01-25T02:26:13;100787.09;;;12.32;69.18
6216;BME280;3141;49.234;9.326;2024-01-25T02:26:56;100779.41;;;12.38;68.96
6216;BME280;3141;49.234;9.326;2024-01-25T02:27:38;100792.53;;;12.40;68.59
6216;BME280;3141;49.234;9.326;2024-01-25T02:28:21;100782.34;;;12.35;68.55
6216;BME280;3141;49.234;9.326;2024-01-25T02:29:03;100790.88;;;12.39;68.70
6216;BME280;3141;49.234;9.326;2024-01-25T02:29:47;100797.56;;;12.33;68.89
6216;BME280;3141;49.234;9.326;2024-01-25T02:30:29;100796.00;;;12.31;68.78
6216;BME280;3141;49.234;9.326;2024-01-25T02:31:11;100792.53;;;12.30;69.01
6216;BME280;3141;49.234;9.326;2024-01-25T02:31:54;100792.13;;;12.35;68.83
6216;BME280;3141;49.234;9.326;2024-01-25T02:32:36;100797.97;;;12.29;68.82
6216;BME280;3141;49.234;9.326;2024-01-25T02:33:18;100799.22;;;12.34;68.77
6216;BME280;3141;49.234;9.326;2024-01-25T02:34:01;100798.66;;;12.31;69.05
6216;BME280;3141;49.234;9.326;2024-01-25T02:34:43;100798.38;;;12.24;69.15
6216;BME280;3141;49.234;9.326;2024-01-25T02:35:26;100806.34;;;12.34;68.68
6216;BME280;3141;49.234;9.326;2024-01-25T02:36:08;100810.81;;;12.43;68.43
6216;BME280;3141;49.234;9.326;2024-01-25T02:36:50;100800.50;;;12.30;68.52
6216;BME280;3141;49.234;9.326;2024-01-25T02:37:33;100806.78;;;12.39;68.71
6216;BME280;3141;49.234;9.326;2024-01-25T02:38:15;100809.28;;;12.59;68.11
6216;BME280;3141;49.234;9.326;2024-01-25T02:38:57;100808.16;;;12.52;67.83
6216;BME280;3141;49.234;9.326;2024-01-25T02:39:40;100814.03;;;12.37;68.45
6216;BME280;3141;49.234;9.326;2024-01-25T02:40:22;100807.88;;;12.36;68.86
6216;BME280;3141;49.234;9.326;2024-01-25T02:41:05;100813.47;;;12.43;68.32
6216;BME280;3141;49.234;9.326;2024-01-25T02:41:47;100806.50;;;12.42;68.37
6216;BME280;3141;49.234;9.326;2024-01-25T02:42:30;100806.63;;;12.50;67.87
6216;BME280;3141;49.234;9.326;2024-01-25T02:43:12;100810.41;;;12.47;68.27
6216;BME280;3141;49.234;9.326;2024-01-25T02:43:54;100817.09;;;12.51;68.05
6216;BME280;3141;49.234;9.326;2024-01-25T02:44:37;100812.06;;;12.58;67.77
6216;BME280;3141;49.234;9.326;2024-01-25T02:45:19;100813.31;;;12.35;67.79
6216;BME280;3141;49.234;9.326;2024-01-25T02:46:01;100819.03;;;12.49;67.79
6216;BME280;3141;49.234;9.326;2024-01-25T02:46:44;100823.53;;;12.49;67.71
6216;BME280;3141;49.234;9.326;2024-01-25T02:47:26;100818.75;;;12.43;67.99
6216;BME280;3141;49.234;9.326;2024-01-25T02:48:09;100814.56;;;12.50;67.89
6216;BME280;3141;49.234;9.326;2024-01-25T02:48:51;100814.59;;;12.40;68.04
6216;BME280;3141;49.234;9.326;2024-01-25T02:49:33;100813.03;;;12.38;68.48
6216;BME280;3141;49.234;9.326;2024-01-25T02:50:16;100795.31;;;12.38;68.09
6216;BME280;3141;49.234;9.326;2024-01-25T02:50:58;100810.53;;;12.46;67.83
6216;BME280;3141;49.234;9.326;2024-01-25T02:51:41;100810.09;;;12.41;67.93
6216;BME280;3141;49.234;9.326;2024-01-25T02:52:23;100809.28;;;12.31;68.14
6216;BME280;3141;49.234;9.326;2024-01-25T02:53:05;100802.28;;;12.39;67.85
6216;BME280;3141;49.234;9.326;2024-01-25T02:53:48;100801.31;;;12.50;67.91
6216;BME280;3141;49.234;9.326;2024-01-25T02:54:34;100802.16;;;12.50;67.57
6216;BME280;3141;49.234;9.326;2024-01-25T02:55:19;100794.59;;;12.46;67.77
6216;BME280;3141;49.234;9.326;2024-01-25T02:56:01;100799.09;;;12.36;67.85
6216;BME280;3141;49.234;9.326;2024-01-25T02:56:43;100801.47;;;12.39;67.86
6216;BME280;3141;49.234;9.326;2024-01-25T02:57:26;100796.59;;;12.44;67.62
6216;BME280;3141;49.234;9.326;2024-01-25T02:58:08;100796.16;;;12.48;66.83
6216;BME280;3141;49.234;9.326;2024-01-25T02:58:50;100804.53;;;12.53;67.05
6216;BME280;3141;49.234;9.326;2024-01-25T02:59:33;100798.81;;;12.48;67.02
6216;BME280;3141;49.234;9.326;2024-01-25T03:00:15;100793.66;;;12.47;66.87
6216;BME280;3141;49.234;9.326;2024-01-25T03:00:58;100798.94;;;12.47;66.85
6216;BME280;3141;49.234;9.326;2024-01-25T03:01:41;100790.28;;;12.45;67.02
6216;BME280;3141;49.234;9.326;2024-01-25T03:02:24;100801.75;;;12.45;67.23
6216;BME280;3141;49.234;9.326;2024-01-25T03:03:06;100796.03;;;12.40;66.89
6216;BME280;3141;49.234;9.326;2024-01-25T03:03:48;100793.78;;;12.45;66.97
6216;BME280;3141;49.234;9.326;2024-01-25T03:04:31;100803.56;;;12.54;66.63
6216;BME280;3141;49.234;9.326;2024-01-25T03:05:13;100793.78;;;12.45;66.79
6216;BME280;3141;49.234;9.326;2024-01-25T03:05:55;100793.94;;;12.44;66.91
6216;BME280;3141;49.234;9.326;2024-01-25T03:06:38;100795.03;;;12.41;67.11
6216;BME280;3141;49.234;9.326;2024-01-25T03:07:20;100795.63;;;12.35;67.19
6216;BME280;3141;49.234;9.326;2024-01-25T03:08:03;100796.19;;;12.39;67.23
6216;BME280;3141;49.234;9.326;2024-01-25T03:08:45;100794.75;;;12.35;67.37
6216;BME280;3141;49.234;9.326;2024-01-25T03:09:28;100793.94;;;12.44;67.01
6216;BME280;3141;49.234;9.326;2024-01-25T03:10:10;100797.53;;;12.24;67.54
6216;BME280;3141;49.234;9.326;2024-01-25T03:10:52;100793.94;;;12.25;67.58
6216;BME280;3141;49.234;9.326;2024-01-25T03:11:35;100797.84;;;12.40;67.51
6216;BME280;3141;49.234;9.326;2024-01-25T03:12:17;100796.44;;;12.36;67.53
6216;BME280;3141;49.234;9.326;2024-01-25T03:12:59;100801.19;;;12.42;67.54
6216;BME280;3141;49.234;9.326;2024-01-25T03:13:42;100797.53;;;12.43;67.29
6216;BME280;3141;49.234;9.326;2024-01-25T03:14:24;100794.59;;;12.46;66.98
6216;BME280;3141;49.234;9.326;2024-01-25T03:15:07;100800.91;;;12.45;67.02
6216;BME280;3141;49.234;9.326;2024-01-25T03:15:49;100798.38;;;12.34;67.36
6216;BME280;3141;49.234;9.326;2024-01-25T03:16:32;100806.19;;;12.45;67.31
6216;BME280;3141;49.234;9.326;2024-01-25T03:17:14;100811.50;;;12.45;66.99
6216;BME280;3141;49.234;9.326;2024-01-25T03:17:56;100804.13;;;12.39;67.42
6216;BME280;3141;49.234;9.326;2024-01-25T03:18:39;100817.94;;;12.33;67.30
6216;BME280;3141;49.234;9.326;2024-01-25T03:19:26;100811.78;;;12.42;67.18
6216;BME280;3141;49.234;9.326;2024-01-25T03:20:09;100807.06;;;12.45;67.09
6216;BME280;3141;49.234;9.326;2024-01-25T03:20:52;100804.53;;;12.34;67.13
6216;BME280;3141;49.234;9.326;2024-01-25T03:21:34;100806.34;;;12.34;67.38
6216;BME280;3141;49.234;9.326;2024-01-25T03:22:16;100798.53;;;12.42;67.15
6216;BME280;3141;49.234;9.326;2024-01-25T03:22:59;100800.06;;;12.35;67.06
6216;BME280;3141;49.234;9.326;2024-01-25T03:23:41;100805.09;;;12.38;67.08
6216;BME280;3141;49.234;9.326;2024-01-25T03:24:23;100802.03;;;12.33;67.32
6216;BME280;3141;49.234;9.326;2024-01-25T03:25:07;100799.78;;;12.28;67.23
6216;BME280;3141;49.234;9.326;2024-01-25T03:25:51;100808.31;;;12.32;67.40
6216;BME280;3141;49.234;9.326;2024-01-25T03:26:33;100814.03;;;12.37;67.05
6216;BME280;3141;49.234;9.326;2024-01-25T03:27:15;100806.06;;;12.37;66.98
6216;BME280;3141;49.234;9.326;2024-01-25T03:27:58;100812.09;;;12.39;67.17
6216;BME280;3141;49.234;9.326;2024-01-25T03:28:40;100808.31;;;12.32;67.30
6216;BME280;3141;49.234;9.326;2024-01-25T03:29:23;100816.53;;;12.38;67.20
6216;BME280;3141;49.234;9.326;2024-01-25T03:30:05;100819.34;;;12.37;67.19
6216;BME280;3141;49.234;9.326;2024-01-25T03:30:48;100811.78;;;12.42;67.21
6216;BME280;3141;49.234;9.326;2024-01-25T03:31:30;100816.69;;;12.37;67.28
6216;BME280;3141;49.234;9.326;2024-01-25T03:32:13;100815.13;;;12.34;67.01
6216;BME280;3141;49.234;9.326;2024-01-25T03:32:55;100822.25;;;12.34;66.88
6216;BME280;3141;49.234;9.326;2024-01-25T03:33:37;100823.22;;;12.33;66.90
6216;BME280;3141;49.234;9.326;2024-01-25T03:34:19;100822.25;;;12.24;67.15
6216;BME280;3141;49.234;9.326;2024-01-25T03:35:02;100823.81;;;12.27;67.52
6216;BME280;3141;49.234;9.326;2024-01-25T03:35:44;100829.66;;;12.21;67.34
6216;BME280;3141;49.234;9.326;2024-01-25T03:36:27;100824.47;;;12.29;67.30
6216;BME280;3141;49.234;9.326;2024-01-25T03:37:09;100835.94;;;12.39;66.92
6216;BME280;3141;49.234;9.326;2024-01-25T03:37:51;100828.13;;;12.28;67.41
6216;BME280;3141;49.234;9.326;2024-01-25T03:38:34;100830.50;;;12.40;66.81
6216;BME280;3141;49.234;9.326;2024-01-25T03:39:16;100832.59;;;12.37;67.16
6216;BME280;3141;49.234;9.326;2024-01-25T03:39:59;100829.38;;;12.43;66.63
6216;BME280;3141;49.234;9.326;2024-01-25T03:40:42;100827.41;;;12.26;67.23
6216;BME280;3141;49.234;9.326;2024-01-25T03:41:24;100834.97;;;12.30;67.07
6216;BME280;3141;49.234;9.326;2024-01-25T03:42:06;100840.94;;;12.23;67.35
6216;BME280;3141;49.234;9.326;2024-01-25T03:42:49;100838.28;;;12.13;67.50
6216;BME280;3141;49.234;9.326;2024-01-25T03:43:31;100836.03;;;12.18;67.89
6216;BME280;3141;49.234;9.326;2024-01-25T03:44:14;100838.84;;;12.17;67.90
6216;BME280;3141;49.234;9.326;2024-01-25T03:44:56;100845.13;;;12.16;67.66
6216;BME280;3141;49.234;9.326;2024-01-25T03:45:38;100832.97;;;12.04;68.08
6216;BME280;3141;49.234;9.326;2024-01-25T03:46:21;100833.81;;;12.14;67.79
6216;BME280;3141;49.234;9.326;2024-01-25T03:47:03;100842.63;;;12.14;67.76
6216;BME280;3141;49.234;9.326;2024-01-25T03:47:46;100837.47;;;12.13;67.96
6216;BME280;3141;49.234;9.326;2024-01-25T03:48:28;100843.47;;;12.15;68.02
6216;BME280;3141;49.234;9.326;2024-01-25T03:49:11;100839.41;;;12.11;67.89